Wawasan Ruby — 3EVU7 — position and weather

sailwx.info

Track history (hours):
 
Tides and Currents Weather Stations Pressure Air Temp Water Temp Dewpoint Dewpoint Depression Visibility Wind Speed Wind Dir Waves Ship Positions

Wawasan Ruby

Last reported at 2015-Jul-01 22:09 UTC. Time now 2015-Jul-02 09:49 UTC.
Position N 31°57' E 120°03'.

Length 146 m; draft 9.3 m.

Type: Tanker. MMSI: 355619000.

Date/timePositionNaut miles runAvg speedWind from/ knotsBaromVisibWave heightAir tempDewpointWater temp
2015-Jul-01 22:09N 31°57' E 120°03'0 0.0
2015-Jul-01 21:21N 31°57' E 120°03'0 0.0
2015-Jul-01 18:33N 31°57' E 120°03'7 6.7
2015-Jul-01 17:30N 31°56' E 120°11'8 8.1
2015-Jul-01 16:33N 31°58' E 120°20'7 6.9
2015-Jul-01 15:33N 32°01' E 120°27'7 6.5
2015-Jul-01 14:33N 32°01' E 120°35'8 7.7
2015-Jul-01 13:34N 32°00' E 120°43'7 7.4
2015-Jul-01 12:33N 31°58' E 120°52'9 9.0
2015-Jul-01 11:33N 31°49' E 120°55'8 8.0
2015-Jul-01 10:33N 31°46' E 121°04'9 9.0
2015-Jul-01 09:33N 31°40' E 121°12'7 7.4
2015-Jul-01 08:33N 31°35' E 121°18'0 0.0
2015-Jul-01 07:29N 31°35' E 121°18'0 0.0
2015-Jul-01 05:23N 31°35' E 121°18'0 0.0
2015-Jul-01 04:29N 31°35' E 121°18'0 0.0
2015-Jul-01 03:23N 31°35' E 121°18'0 0.0
2015-Jul-01 02:29N 31°35' E 121°18'0 0.0
2015-Jul-01 01:32N 31°35' E 121°18'0 0.0
2015-Jul-01 00:23N 31°35' E 121°18'0 0.0
2015-Jun-30 23:33N 31°35' E 121°18'0 0.0
2015-Jun-30 22:15N 31°35' E 121°18'0 0.0
2015-Jun-30 21:30N 31°35' E 121°18'0 0.0
2015-Jun-30 20:30N 31°35' E 121°18'0 0.0
2015-Jun-30 19:06N 31°35' E 121°18'0 0.0
2015-Jun-30 18:30N 31°35' E 121°18'0 0.0
2015-Jun-30 17:30N 31°35' E 121°18'0 0.0
2015-Jun-30 16:30N 31°35' E 121°18'0 0.0
2015-Jun-30 15:30N 31°35' E 121°18'0 0.0
2015-Jun-30 14:33N 31°35' E 121°18'4 3.6
2015-Jun-30 13:33N 31°32' E 121°21'1110.9
2015-Jun-30 12:33N 31°25' E 121°30'9 9.3
2015-Jun-30 11:33N 31°21' E 121°40'10 9.8
2015-Jun-30 10:33N 31°17' E 121°50'9 8.8
2015-Jun-30 09:33N 31°15' E 122°00'8 7.8
2015-Jun-30 08:33N 31°12' E 122°09'7 6.9
2015-Jun-30 07:33N 31°08' E 122°15'9 9.1
2015-Jun-30 06:32N 31°06' E 122°26'9 2.5
2015-Jun-30 03:07N 31°08' E 122°36'0 0.0
2015-Jun-30 02:29N 31°08' E 122°36'2 0.4
2015-Jun-29 21:33N 31°10' E 122°37'0 0.3
2015-Jun-29 20:27N 31°10' E 122°38'0 0.0
2015-Jun-29 19:18N 31°10' E 122°38'0 0.0
2015-Jun-29 15:33N 31°10' E 122°38'  
2015-Jun-22 10:34N 01°17' E 103°41'0 0.5
2015-Jun-22 09:34N 01°17' E 103°42'4 3.5
2015-Jun-22 08:31N 01°14' E 103°39'1 0.3
2015-Jun-22 06:22N 01°14' E 103°39'0 0.0
2015-Jun-22 05:31N 01°14' E 103°39'0 0.0
2015-Jun-22 04:12N 01°14' E 103°39'0 0.0
2015-Jun-22 03:05N 01°14' E 103°39'0 0.2
2015-Jun-22 02:33N 01°14' E 103°39'5 5.1
2015-Jun-22 01:31N 01°15' E 103°44'  
Track history (hours):
 
Tides and Currents Weather Stations Pressure Air Temp Water Temp Dewpoint Dewpoint Depression Visibility Wind Speed Wind Dir Waves Ship Positions

Wawasan Ruby

Last reported at 2015-Jul-01 22:09 UTC. Time now 2015-Jul-02 09:49 UTC.
Position N 31°57' E 120°03'.

Length 146 m; draft 9.3 m.

Type: Tanker. MMSI: 355619000.

Date/timePositionNaut miles runAvg speedWind from/ knotsBaromVisibWave heightAir tempDewpointWater temp
2015-Jul-01 22:09N 31°57' E 120°03'0 0.0
2015-Jul-01 21:21N 31°57' E 120°03'0 0.0
2015-Jul-01 18:33N 31°57' E 120°03'7 6.7
2015-Jul-01 17:30N 31°56' E 120°11'8 8.1
2015-Jul-01 16:33N 31°58' E 120°20'7 6.9
2015-Jul-01 15:33N 32°01' E 120°27'7 6.5
2015-Jul-01 14:33N 32°01' E 120°35'8 7.7
2015-Jul-01 13:34N 32°00' E 120°43'7 7.4
2015-Jul-01 12:33N 31°58' E 120°52'9 9.0
2015-Jul-01 11:33N 31°49' E 120°55'8 8.0
2015-Jul-01 10:33N 31°46' E 121°04'9 9.0
2015-Jul-01 09:33N 31°40' E 121°12'7 7.4
2015-Jul-01 08:33N 31°35' E 121°18'0 0.0
2015-Jul-01 07:29N 31°35' E 121°18'0 0.0
2015-Jul-01 05:23N 31°35' E 121°18'0 0.0
2015-Jul-01 04:29N 31°35' E 121°18'0 0.0
2015-Jul-01 03:23N 31°35' E 121°18'0 0.0
2015-Jul-01 02:29N 31°35' E 121°18'0 0.0
2015-Jul-01 01:32N 31°35' E 121°18'0 0.0
2015-Jul-01 00:23N 31°35' E 121°18'0 0.0
2015-Jun-30 23:33N 31°35' E 121°18'0 0.0
2015-Jun-30 22:15N 31°35' E 121°18'0 0.0
2015-Jun-30 21:30N 31°35' E 121°18'0 0.0
2015-Jun-30 20:30N 31°35' E 121°18'0 0.0
2015-Jun-30 19:06N 31°35' E 121°18'0 0.0
2015-Jun-30 18:30N 31°35' E 121°18'0 0.0
2015-Jun-30 17:30N 31°35' E 121°18'0 0.0
2015-Jun-30 16:30N 31°35' E 121°18'0 0.0
2015-Jun-30 15:30N 31°35' E 121°18'0 0.0
2015-Jun-30 14:33N 31°35' E 121°18'4 3.6
2015-Jun-30 13:33N 31°32' E 121°21'1110.9
2015-Jun-30 12:33N 31°25' E 121°30'9 9.3
2015-Jun-30 11:33N 31°21' E 121°40'10 9.8
2015-Jun-30 10:33N 31°17' E 121°50'9 8.8
2015-Jun-30 09:33N 31°15' E 122°00'8 7.8
2015-Jun-30 08:33N 31°12' E 122°09'7 6.9
2015-Jun-30 07:33N 31°08' E 122°15'9 9.1
2015-Jun-30 06:32N 31°06' E 122°26'9 2.5
2015-Jun-30 03:07N 31°08' E 122°36'0 0.0
2015-Jun-30 02:29N 31°08' E 122°36'2 0.4
2015-Jun-29 21:33N 31°10' E 122°37'0 0.3
2015-Jun-29 20:27N 31°10' E 122°38'0 0.0
2015-Jun-29 19:18N 31°10' E 122°38'0 0.0
2015-Jun-29 15:33N 31°10' E 122°38'  
2015-Jun-22 10:34N 01°17' E 103°41'0 0.5
2015-Jun-22 09:34N 01°17' E 103°42'4 3.5
2015-Jun-22 08:31N 01°14' E 103°39'1 0.3
2015-Jun-22 06:22N 01°14' E 103°39'0 0.0
2015-Jun-22 05:31N 01°14' E 103°39'0 0.0
2015-Jun-22 04:12N 01°14' E 103°39'0 0.0
2015-Jun-22 03:05N 01°14' E 103°39'0 0.2
2015-Jun-22 02:33N 01°14' E 103°39'5 5.1
2015-Jun-22 01:31N 01°15' E 103°44'  

Dump ship's entire track history